»·PEaware :: N226AN KSAN-KCNO

N226AN :: KSAN-KCNO

FLIGHT INFORMATION

Flight Status: Arrived
Operator: Privately registered:
United States
More flights under this callsign
Pilot: Romain L. (19401)
Aircraft: CESSNA 208 CARAVAN
(C208)
More flights by this aircraft type
Origin: KSAN San Diego Intl-Lindbergh
United States
Destination: KCNO Chino
United States
More flights between these airports :: More routes between these airports
Route: +
File this flight plan on PilotEdge
Remarks:
Altitude:
(Current/Filed)
0ft
Speed:
(Current/Filed)
0kts
Departed: 01-Aug-18 12:37 PM
Arrived: 01-Aug-18 01:20 PM
Distance/Time
Traveled:
78nm/0:43
Distance/Time
To Go:
Arrived

Flight Plot

Page will automatically refresh every two minutes.


Map Options




Map Legend


Flown Route
Filed Route
Departure Airport
Arrival Airport
Navaid (VOR, NDB)
Fix

Horizontal Profiles

Position Reports

Time Latitude Longitude Heading Altitude Ground
Speed
01-Aug-18 12:25 32.732238 -117.177217 194 22ft 0kts
01-Aug-18 12:26 32.732238 -117.177217 194 22ft 0kts
01-Aug-18 12:27 32.732238 -117.177217 194 22ft 0kts
01-Aug-18 12:28 32.732238 -117.177217 194 22ft 0kts
01-Aug-18 12:29 32.732218 -117.177222 192 22ft 1kts
01-Aug-18 12:30 32.731213 -117.176673 194 22ft 0kts
01-Aug-18 12:31 32.731213 -117.176673 194 22ft 0kts
01-Aug-18 12:32 32.731213 -117.176673 194 22ft 0kts
01-Aug-18 12:33 32.731213 -117.176673 194 22ft 0kts
01-Aug-18 12:34 32.731213 -117.176673 194 22ft 0kts
01-Aug-18 12:35 32.731213 -117.176673 194 22ft 0kts
01-Aug-18 12:36 32.731213 -117.176673 194 22ft 0kts
01-Aug-18 12:37 32.730606 -117.177484 284 22ft 9kts
01-Aug-18 12:38 32.736930 -117.200362 304 467ft 118kts
01-Aug-18 12:39 32.762397 -117.228483 318 1535ft 134kts
01-Aug-18 12:40 32.791533 -117.254858 4 2520ft 144kts
01-Aug-18 12:41 32.803474 -117.217578 71 3534ft 141kts
01-Aug-18 12:42 32.844406 -117.211179 325 3365ft 174kts
01-Aug-18 12:43 32.879333 -117.249133 326 3469ft 175kts
01-Aug-18 12:44 32.923867 -117.273040 339 3470ft 178kts
01-Aug-18 12:45 32.970046 -117.293833 339 3488ft 179kts
01-Aug-18 12:46 33.016510 -117.314711 339 3504ft 179kts
01-Aug-18 12:47 33.062785 -117.335533 339 3721ft 169kts
01-Aug-18 12:48 33.102559 -117.353480 339 4469ft 156kts
01-Aug-18 12:49 33.129404 -117.365588 339 5000ft 154kts
01-Aug-18 12:50 33.159641 -117.379227 339 5606ft 152kts
01-Aug-18 12:51 33.190688 -117.409325 301 6403ft 150kts
01-Aug-18 12:52 33.233269 -117.417383 351 6492ft 174kts
01-Aug-18 12:53 33.282040 -117.421669 354 6491ft 178kts
01-Aug-18 12:54 33.330121 -117.428769 352 6807ft 164kts
01-Aug-18 12:55 33.372310 -117.429379 17 7691ft 148kts
01-Aug-18 12:56 33.410686 -117.414130 18 8479ft 150kts
01-Aug-18 12:57 33.454548 -117.412108 18 8492ft 174kts
01-Aug-18 12:58 33.502533 -117.402006 9 8491ft 177kts
01-Aug-18 12:59 33.550509 -117.398737 331 8497ft 177kts
01-Aug-18 13:00 33.594495 -117.422795 352 8491ft 178kts
01-Aug-18 13:01 33.642719 -117.435050 344 8490ft 178kts
01-Aug-18 13:02 33.692112 -117.451555 344 8019ft 187kts
01-Aug-18 13:03 33.741913 -117.468291 344 7523ft 187kts
01-Aug-18 13:04 33.791693 -117.485036 344 6969ft 182kts
01-Aug-18 13:05 33.837261 -117.500397 344 6158ft 164kts
01-Aug-18 13:06 33.867356 -117.533030 267 5360ft 161kts
01-Aug-18 13:07 33.838554 -117.548757 128 4561ft 138kts
01-Aug-18 13:08 33.852982 -117.516835 20 3784ft 128kts
01-Aug-18 13:09 33.887746 -117.518449 346 2987ft 127kts
01-Aug-18 13:10 33.880473 -117.531935 111 2497ft 115kts
01-Aug-18 13:11 33.902023 -117.522503 342 2490ft 107kts
01-Aug-18 13:12 33.925254 -117.541524 304 2491ft 105kts
01-Aug-18 13:13 33.946585 -117.565505 341 2534ft 107kts
01-Aug-18 13:14 33.970778 -117.583250 313 2665ft 93kts
01-Aug-18 13:15 33.975944 -117.611446 271 1672ft 95kts
01-Aug-18 13:16 33.975704 -117.641695 275 1268ft 93kts
01-Aug-18 13:17 33.986938 -117.651582 355 1425ft 89kts
01-Aug-18 13:18 33.995292 -117.631661 89 1322ft 88kts
01-Aug-18 13:19 33.991400 -117.607066 169 1202ft 83kts
01-Aug-18 13:20 33.975935 -117.622238 264 821ft 76kts
01-Aug-18 13:21 33.975794 -117.641699 269 654ft 32kts
01-Aug-18 13:22 33.976474 -117.644112 2 654ft 0kts
01-Aug-18 13:23 33.977354 -117.643391 353 654ft 8kts
01-Aug-18 13:24 33.979286 -117.644302 297 654ft 7kts
01-Aug-18 13:25 33.979784 -117.644936 266 654ft 0kts
01-Aug-18 13:26 33.979784 -117.644936 266 654ft 0kts
01-Aug-18 13:27 33.979784 -117.644936 266 654ft 0kts
01-Aug-18 13:28 33.979784 -117.644936 266 654ft 0kts
01-Aug-18 13:29 33.979784 -117.644936 266 654ft 0kts
01-Aug-18 13:30 33.979784 -117.644936 266 654ft 0kts
01-Aug-18 13:31 33.979784 -117.644936 266 654ft 0kts
01-Aug-18 13:32 33.979784 -117.644936 266 654ft 0kts
01-Aug-18 13:33 33.979784 -117.644936 266 654ft 0kts
01-Aug-18 13:34 33.979784 -117.644936 266 654ft 0kts
01-Aug-18 13:35 33.979784 -117.644936 266 654ft 0kts

Navigation Log

Ident Type
Flight plan parsing failed, navigation log unavailable